Flight Number: EUR3110 Duration: 9:30
Departure: Moscow Sheremetyevo (UUEE) at 08:30 Distance: 4037 Nm
Arrival: John F Kennedy Int'l (KJFK) at 18:00 Equipment: B747

Weather Information
Moscow / Sheremet'Ye , Russia (UUEE) 55-59N 037-30E Sep 21, 2017 - 05:00 PM EDT / 2017.09.21 2100 UTC
Wind: from the E (090 degrees) at 13 MPH (12 KT):0
Visibility: greater than 7 mile(s):0 Temperature: 50 F (10 C) Dew Point: 46 F (8 C) Relative Humidity: 87% Pressure (altimeter): 30.42 in. Hg (1030 hPa)
ob: UUEE 212100Z 09006MPS CAVOK 10/08 Q1030 R06R/CLRD62 NOSIG cycle: 21
Sunrise: 03:18 Sunset: 15:27 (UTC)

KENNEDY INTERNATIONAL AIRPORT , NY, United States (KJFK) 40-38N 073-46W 9M Sep 21, 2017 - 04:51 PM EDT / 2017.09.21 2051 UTC
Wind: from the N (350 degrees) at 15 MPH (13 KT):0
Visibility: 10 mile(s):0
Sky conditions: mostly cloudy Temperature: 79.0 F (26.1 C) Dew Point: 64.0 F (17.8 C) Relative Humidity: 60% Pressure (altimeter): 29.99 in. Hg (1015 hPa) Pressure tendency: 0.00 inches (0.1 hPa) higher than three hours ago
ob: KJFK 212051Z 35013KT 10SM FEW040 SCT220 BKN260 26/18 A2999 RMK AO2 SLP155 T02610178 53001 cycle: 21
Sunrise: 10:45 Sunset: 22:50 (UTC)

TAF:2017/09/21 19:32 TAF AMD KJFK 211925Z 2119/2224 36014G21KT P6SM FEW040 BKN250 FM212300 36010KT P6SM SCT050 BKN250 FM220500 35012KT P6SM BKN250 FM221300 36014KT P6SM BKN100

Previous Pireps for this route
Date Aircraft Flight time Fuel used Landing rate On time
2015-05-06A34009.42163207-115Charter
2016-05-21B74709.22186414-142Yes
2017-05-13B74709.05204715-124Charter
(pireps marked green are flown by you)

Route map